Time;durP1;ratioP1;P1;durP2;ratioP2;P2;SDS_P1;SDS_P2;PMS_P1;PMS_P2;Temp;Humidity;BMP_temperature;BMP_pressure;BME280_temperature;BME280_humidity;BME280_pressure;Samples;Min_cycle;Max_cycle;Signal;HPM_P1;HPM_P2
2021/03/28 00:01:50;;;;;;;55.00;23.87;;;;;;;8.25;51.38;95563.19;4766159;30;20968;-69
2021/03/28 00:04:15;;;;;;;48.53;22.27;;;;;;;8.27;51.96;95561.78;4767446;30;20538;-69
2021/03/28 00:06:49;;;;;;;55.53;22.63;;;;;;;7.74;54.05;95570.00;4767376;30;20852;-69
2021/03/28 00:09:27;;;;;;;45.87;21.93;;;;;;;8.07;52.40;95570.38;4767438;30;20280;-69
2021/03/28 00:12:15;;;;;;;43.73;22.13;;;;;;;8.18;51.43;95558.34;4806448;29;20487;-69
2021/03/28 00:14:53;;;;;;;53.73;22.40;;;;;;;8.03;52.62;95570.25;4821463;29;20425;-70
2021/03/28 00:17:24;;;;;;;45.03;20.93;;;;;;;8.15;52.45;95570.41;4864600;29;20431;-71
2021/03/28 00:20:26;;;;;;;51.63;21.73;;;;;;;8.18;52.20;95561.78;4934647;29;20451;-69
2021/03/28 00:23:07;;;;;;;43.23;21.23;;;;;;;7.98;53.04;95581.03;4904640;29;20934;-69
2021/03/28 00:25:41;;;;;;;46.33;21.30;;;;;;;7.65;53.62;95573.44;4932563;29;20512;-70
2021/03/28 00:28:22;;;;;;;47.63;22.50;;;;;;;8.02;52.91;95589.94;4937037;29;20462;-69
2021/03/28 00:30:48;;;;;;;53.20;24.30;;;;;;;7.91;53.30;95580.69;4936887;29;20430;-68
2021/03/28 00:33:19;;;;;;;48.67;22.23;;;;;;;7.96;52.39;95585.84;4936568;29;20782;-68
2021/03/28 00:35:54;;;;;;;51.70;21.57;;;;;;;8.00;52.43;95588.69;4936832;29;20238;-69
2021/03/28 00:38:48;;;;;;;50.23;22.10;;;;;;;8.07;52.95;95587.13;4936936;29;20450;-68
2021/03/28 00:41:22;;;;;;;46.67;21.93;;;;;;;8.03;51.92;95575.56;4935211;29;21075;-68
2021/03/28 00:43:57;;;;;;;52.50;23.53;;;;;;;7.84;53.55;95588.34;4936362;29;20498;-69
2021/03/28 00:46:46;;;;;;;52.10;24.57;;;;;;;7.72;53.31;95582.84;4936672;29;20457;-69
2021/03/28 00:49:31;;;;;;;51.27;24.23;;;;;;;7.79;53.29;95585.81;4930831;29;20959;-69
2021/03/28 00:52:13;;;;;;;51.23;25.67;;;;;;;7.50;54.09;95576.53;4936349;29;20517;-69
2021/03/28 00:54:45;;;;;;;55.17;25.97;;;;;;;7.56;54.92;95585.13;4937375;29;20434;-69
2021/03/28 00:57:31;;;;;;;46.93;22.97;;;;;;;7.41;54.52;95586.34;4953379;29;20414;-68
2021/03/28 01:00:52;;;;;;;52.37;26.13;;;;;;;7.62;54.82;95589.22;4937083;29;20489;-70
2021/03/28 01:03:37;;;;;;;58.33;25.30;;;;;;;7.68;53.85;95591.41;4952249;29;20415;-69
2021/03/28 01:06:22;;;;;;;63.70;27.87;;;;;;;7.66;53.46;95585.63;4938051;29;20958;-69
2021/03/28 01:09:10;;;;;;;60.87;27.90;;;;;;;7.51;54.15;95564.78;4937489;29;20506;-69
2021/03/28 01:11:42;;;;;;;63.23;27.40;;;;;;;7.74;53.83;95576.13;4947034;29;20435;-69
2021/03/28 01:14:17;;;;;;;61.57;27.77;;;;;;;7.77;53.23;95580.81;4951774;29;20462;-69
2021/03/28 01:17:19;;;;;;;57.23;26.20;;;;;;;7.74;52.86;95570.78;4936183;29;20501;-70
2021/03/28 01:20:15;;;;;;;56.07;25.63;;;;;;;7.69;52.91;95576.28;4953421;29;20419;-69
2021/03/28 01:23:23;;;;;;;65.87;29.70;;;;;;;7.64;53.70;95576.44;4936254;29;21035;-69
2021/03/28 01:25:48;;;;;;;62.70;26.43;;;;;;;7.02;55.31;95571.97;4947373;29;20509;-70
2021/03/28 01:28:15;;;;;;;53.83;25.17;;;;;;;7.27;54.65;95569.72;4953436;29;20446;-69
2021/03/28 01:30:44;;;;;;;52.80;25.80;;;;;;;7.46;54.35;95567.59;4936038;29;20702;-69
2021/03/28 01:33:14;;;;;;;65.23;27.80;;;;;;;7.52;53.81;95571.69;4936012;29;20570;-69
2021/03/28 01:35:53;;;;;;;71.03;29.30;;;;;;;7.51;53.96;95566.69;4936153;29;20423;-69
2021/03/28 01:39:03;;;;;;;58.13;27.47;;;;;;;7.49;54.37;95571.53;4936026;29;20429;-69
2021/03/28 01:41:34;;;;;;;57.87;26.17;;;;;;;7.59;53.73;95582.66;4875499;29;21013;-69
2021/03/28 01:44:32;;;;;;;53.30;25.27;;;;;;;7.53;53.26;95586.56;4860089;29;20423;-69
2021/03/28 01:47:18;;;;;;;54.90;25.07;;;;;;;7.08;54.56;95570.75;4875108;29;20422;-69
2021/03/28 01:49:46;;;;;;;60.07;26.07;;;;;;;7.00;56.15;95576.78;4862270;29;20457;-69
2021/03/28 01:52:34;;;;;;;48.83;23.10;;;;;;;6.84;55.56;95575.59;4874728;29;20427;-68
2021/03/28 01:55:08;;;;;;;53.47;24.33;;;;;;;7.16;54.75;95587.81;4862808;29;20817;-69
2021/03/28 01:57:48;;;;;;;50.90;24.67;;;;;;;6.87;55.16;95589.06;4859887;29;20498;-69
2021/03/28 02:00:40;;;;;;;53.23;26.17;;;;;;;6.96;55.79;95583.00;4860167;29;20565;-69
2021/03/28 02:03:20;;;;;;;49.60;25.80;;;;;;;7.15;55.01;95587.03;4860938;29;20521;-68
2021/03/28 02:06:36;;;;;;;50.70;23.67;;;;;;;6.69;56.47;95581.31;4875008;29;20461;-68
2021/03/28 02:09:27;;;;;;;47.33;22.60;;;;;;;6.46;56.94;95581.31;4838032;29;20432;-68
2021/03/28 02:12:11;;;;;;;38.13;20.20;;;;;;;6.84;55.28;95572.94;4838043;29;20448;-68
2021/03/28 02:14:39;;;;;;;46.40;21.70;;;;;;;6.94;56.20;95572.69;4838363;29;20480;-68
2021/03/28 02:17:19;;;;;;;34.20;18.33;;;;;;;6.97;54.50;95574.75;4865463;29;20443;-69
2021/03/28 02:20:12;;;;;;;40.13;18.83;;;;;;;7.15;54.08;95575.63;4862897;29;20564;-69
2021/03/28 02:23:10;;;;;;;31.63;16.60;;;;;;;7.14;53.57;95574.84;4893473;29;20820;-69
2021/03/28 02:25:50;;;;;;;32.03;17.37;;;;;;;6.95;55.25;95573.47;4839199;29;20487;-69
2021/03/28 02:28:43;;;;;;;37.10;18.33;;;;;;;6.95;54.39;95576.13;4841415;29;20452;-71
2021/03/28 02:31:22;;;;;;;33.00;18.20;;;;;;;7.10;54.24;95579.19;4841353;29;20938;-68
2021/03/28 02:33:55;;;;;;;33.67;17.77;;;;;;;7.12;53.88;95581.53;4841120;29;20488;-68
2021/03/28 02:36:57;;;;;;;31.73;17.73;;;;;;;6.78;55.59;95587.44;4841243;29;20557;-68
2021/03/28 02:40:05;;;;;;;32.17;17.70;;;;;;;6.97;54.13;95587.25;4838427;29;20627;-68
2021/03/28 02:42:33;;;;;;;37.10;17.50;;;;;;;7.09;54.56;95588.25;4822481;29;20984;-68
2021/03/28 02:45:05;;;;;;;44.77;19.27;;;;;;;7.07;54.44;95593.09;4835733;29;20491;-68
2021/03/28 02:48:08;;;;;;;43.40;20.47;;;;;;;7.05;54.46;95599.78;4859284;29;20440;-68
2021/03/28 02:50:39;;;;;;;44.67;20.97;;;;;;;7.08;53.50;95589.34;4859315;29;20431;-68
2021/03/28 02:53:20;;;;;;;48.67;20.27;;;;;;;6.97;54.76;95600.53;4859496;29;20443;-68
2021/03/28 02:56:00;;;;;;;45.80;19.77;;;;;;;6.96;55.56;95594.44;4859160;29;20498;-68
2021/03/28 02:58:34;;;;;;;47.30;19.97;;;;;;;6.73;55.72;95603.47;4859340;29;20443;-68
2021/03/28 03:01:18;;;;;;;39.50;18.30;;;;;;;6.89;55.06;95600.16;4858874;29;20484;-68
2021/03/28 03:04:16;;;;;;;35.70;16.70;;;;;;;6.87;54.57;95596.25;4915466;29;20591;-69
2021/03/28 03:07:08;;;;;;;30.73;15.33;;;;;;;6.86;54.89;95606.09;4877713;29;21095;-67
2021/03/28 03:09:43;;;;;;;33.53;17.20;;;;;;;6.83;54.58;95604.03;4877928;29;20974;-68
2021/03/28 03:12:10;;;;;;;33.87;16.07;;;;;;;6.82;55.15;95609.63;4877417;29;20871;-68
2021/03/28 03:15:03;;;;;;;35.53;16.83;;;;;;;6.35;55.85;95606.50;4877705;29;20567;-68
2021/03/28 03:17:50;;;;;;;38.50;16.10;;;;;;;6.76;55.31;95610.84;4877300;29;20437;-68
2021/03/28 03:20:25;;;;;;;32.67;15.97;;;;;;;6.81;55.21;95613.38;4892447;29;21066;-69
2021/03/28 03:23:14;;;;;;;33.43;15.07;;;;;;;6.80;54.29;95609.16;4895936;29;20432;-68
2021/03/28 03:26:04;;;;;;;32.53;15.33;;;;;;;6.86;54.46;95615.91;4895694;29;20889;-70
2021/03/28 03:28:44;;;;;;;32.70;14.53;;;;;;;6.80;54.60;95617.13;4896037;29;20490;-68
2021/03/28 03:31:31;;;;;;;32.83;15.83;;;;;;;6.63;55.84;95623.88;4895914;29;21153;-68
2021/03/28 03:34:20;;;;;;;30.50;14.80;;;;;;;6.66;54.49;95624.34;4895662;29;20449;-68
2021/03/28 03:36:46;;;;;;;33.30;14.17;;;;;;;6.37;56.66;95620.25;4895637;29;20829;-68
2021/03/28 03:39:50;;;;;;;27.80;13.20;;;;;;;6.48;54.51;95618.94;4895683;29;20425;-69
2021/03/28 03:42:35;;;;;;;19.73;11.53;;;;;;;6.68;54.64;95625.63;4905360;29;20222;-68
2021/03/28 03:45:28;;;;;;;25.50;12.40;;;;;;;6.62;55.04;95624.16;4939417;29;20454;-68
2021/03/28 03:47:58;;;;;;;23.50;13.07;;;;;;;6.26;56.20;95630.28;4938719;29;20776;-69
2021/03/28 03:50:42;;;;;;;27.30;14.43;;;;;;;6.61;54.95;95633.22;4937920;29;20427;-69
2021/03/28 03:53:38;;;;;;;25.40;13.07;;;;;;;6.67;54.69;95634.66;4954664;29;20856;-69
2021/03/28 03:56:44;;;;;;;29.77;13.63;;;;;;;6.57;54.58;95630.41;4954387;29;20521;-68
2021/03/28 03:59:12;;;;;;;30.10;13.37;;;;;;;6.55;54.98;95627.25;4913910;29;20444;-69
2021/03/28 04:01:53;;;;;;;27.47;14.23;;;;;;;6.53;55.97;95639.25;4898479;29;20563;-71
2021/03/28 04:05:09;;;;;;;23.73;12.77;;;;;;;6.66;55.17;95637.63;4914064;29;20432;-68
2021/03/28 04:08:08;;;;;;;26.20;14.40;;;;;;;6.59;55.41;95635.41;4900339;29;20467;-70
2021/03/28 04:10:52;;;;;;;35.53;16.13;;;;;;;6.51;55.70;95639.56;4914283;29;20491;-69
2021/03/28 04:13:38;;;;;;;31.27;14.43;;;;;;;6.31;56.58;95642.66;4914130;29;20534;-69
2021/03/28 04:16:25;;;;;;;29.43;13.70;;;;;;;6.46;56.21;95639.69;4913733;29;20428;-70
2021/03/28 04:18:59;;;;;;;33.67;14.50;;;;;;;6.58;56.17;95645.22;4898268;29;20429;-68
2021/03/28 04:21:30;;;;;;;36.07;15.73;;;;;;;6.65;55.84;95657.28;4913714;29;20479;-69
2021/03/28 04:24:26;;;;;;;35.17;16.97;;;;;;;6.40;56.73;95659.44;4913636;29;20468;-68
2021/03/28 04:26:59;;;;;;;33.10;17.13;;;;;;;6.55;56.07;95659.09;4898127;29;20436;-68
2021/03/28 04:29:25;;;;;;;40.63;17.57;;;;;;;6.49;56.19;95662.16;4897729;29;20448;-68
2021/03/28 04:32:02;;;;;;;32.20;16.87;;;;;;;6.43;56.81;95671.31;4897980;29;20519;-68
2021/03/28 04:34:49;;;;;;;36.73;18.13;;;;;;;6.66;56.49;95674.78;4955590;28;21316;-68
2021/03/28 04:37:44;;;;;;;33.67;17.17;;;;;;;6.71;55.97;95662.19;4973026;28;20928;-69
2021/03/28 04:40:29;;;;;;;33.67;17.70;;;;;;;6.46;57.58;95670.72;4958221;28;20838;-68
2021/03/28 04:43:10;;;;;;;34.50;17.77;;;;;;;6.70;57.00;95679.19;4972779;28;20437;-68
2021/03/28 04:45:56;;;;;;;27.80;16.70;;;;;;;6.77;56.42;95679.56;4957393;28;20441;-69
2021/03/28 04:48:56;;;;;;;35.40;15.87;;;;;;;6.77;56.42;95686.75;4972313;28;20512;-68
2021/03/28 04:51:49;;;;;;;36.33;18.10;;;;;;;6.77;56.86;95681.44;4958237;28;20426;-68
2021/03/28 04:54:47;;;;;;;40.00;18.70;;;;;;;6.86;56.18;95691.03;4972757;28;20440;-68
2021/03/28 04:57:29;;;;;;;48.37;19.27;;;;;;;6.36;56.39;95688.44;4955698;28;20480;-68
2021/03/28 05:00:13;;;;;;;38.87;19.40;;;;;;;6.48;56.45;95692.44;4955689;28;20426;-68
2021/03/28 05:03:04;;;;;;;44.57;19.83;;;;;;;5.78;57.97;95698.84;4972598;28;20516;-68
2021/03/28 05:05:53;;;;;;;40.10;20.23;;;;;;;6.29;58.08;95695.22;4941948;28;20508;-67
2021/03/28 05:08:41;;;;;;;38.73;20.00;;;;;;;6.09;57.62;95701.72;4954801;28;20438;-69
2021/03/28 05:11:14;;;;;;;38.00;18.27;;;;;;;6.03;57.68;95695.72;4972376;28;20430;-69
2021/03/28 05:14:19;;;;;;;42.07;19.33;;;;;;;6.63;57.70;95706.16;4972706;28;20913;-69
2021/03/28 05:17:06;;;;;;;37.20;17.53;;;;;;;6.80;57.15;95699.41;4972586;28;20406;-69
2021/03/28 05:19:46;;;;;;;37.97;17.63;;;;;;;6.98;57.35;95698.47;4972438;28;20416;-69
2021/03/28 05:22:34;;;;;;;37.60;18.70;;;;;;;7.32;55.50;95702.44;4972510;28;20485;-69
2021/03/28 05:25:31;;;;;;;43.70;19.00;;;;;;;7.16;56.37;95699.34;4944513;28;20467;-69
2021/03/28 05:27:59;;;;;;;48.20;19.77;;;;;;;7.09;56.71;95705.09;4938567;29;20423;-69
2021/03/28 05:30:50;;;;;;;36.73;18.63;;;;;;;7.43;56.75;95709.06;4953268;29;20434;-69
2021/03/28 05:33:30;;;;;;;35.73;18.40;;;;;;;7.39;56.07;95716.84;4935872;29;20437;-69
2021/03/28 05:36:05;;;;;;;37.40;19.47;;;;;;;7.26;57.11;95712.38;4936009;29;20434;-69
2021/03/28 05:39:07;;;;;;;44.83;18.67;;;;;;;7.51;56.19;95726.91;4936037;29;20429;-69
2021/03/28 05:42:10;;;;;;;38.87;20.70;;;;;;;7.79;55.31;95726.72;4906082;29;20469;-69
2021/03/28 05:44:59;;;;;;;44.17;20.93;;;;;;;7.81;55.19;95730.66;4952881;29;20419;-71
2021/03/28 05:48:02;;;;;;;49.30;21.47;;;;;;;7.99;54.58;95736.06;4938475;29;20481;-71
2021/03/28 05:50:54;;;;;;;43.90;22.00;;;;;;;8.23;54.45;95739.88;4952965;29;20514;-69
2021/03/28 05:53:38;;;;;;;54.47;23.50;;;;;;;8.30;53.91;95746.63;4936785;29;20430;-69
2021/03/28 05:56:36;;;;;;;57.40;24.43;;;;;;;8.52;52.38;95749.22;4953152;29;20430;-68
2021/03/28 05:59:46;;;;;;;53.53;23.47;;;;;;;8.50;52.61;95750.63;4939297;28;20434;-71
2021/03/28 06:02:45;;;;;;;56.53;24.37;;;;;;;8.56;52.51;95749.41;4934013;29;20482;-69
2021/03/28 06:05:30;;;;;;;48.20;26.30;;;;;;;8.54;52.34;95747.06;4938975;29;20427;-72
2021/03/28 06:08:16;;;;;;;55.93;24.10;;;;;;;8.80;52.82;95752.41;4956375;29;20848;-71
2021/03/28 06:11:00;;;;;;;53.23;24.63;;;;;;;8.80;51.67;95746.28;4956526;29;20422;-73
2021/03/28 06:13:50;;;;;;;56.03;25.03;;;;;;;8.92;51.66;95754.44;4956222;29;20422;-71
2021/03/28 06:16:22;;;;;;;61.63;25.07;;;;;;;8.87;51.37;95747.41;4956059;29;20426;-72
2021/03/28 06:19:14;;;;;;;45.00;25.50;;;;;;;8.71;51.70;95755.06;4923806;29;20925;-73
2021/03/28 06:21:54;;;;;;;53.47;27.13;;;;;;;8.59;51.80;95754.88;4938931;29;20466;-69
2021/03/28 06:25:13;;;;;;;51.13;26.50;;;;;;;8.85;52.05;95751.47;4961265;28;20476;-72
2021/03/28 06:28:00;;;;;;;47.73;25.20;;;;;;;8.92;51.64;95757.91;4916129;29;20437;-69
2021/03/28 06:30:38;;;;;;;49.10;23.27;;;;;;;9.10;50.66;95757.91;4915901;29;20428;-70
2021/03/28 06:33:38;;;;;;;50.40;23.47;;;;;;;9.36;49.83;95761.31;4915575;29;20489;-68
2021/03/28 06:36:32;;;;;;;50.77;24.03;;;;;;;9.66;49.71;95759.56;4879422;29;20437;-69
2021/03/28 06:39:35;;;;;;;53.57;25.53;;;;;;;9.87;49.81;95758.88;4895940;29;20436;-69
2021/03/28 06:42:34;;;;;;;46.20;24.07;;;;;;;10.17;48.13;95755.16;4896128;29;21212;-72
2021/03/28 06:45:09;;;;;;;42.07;22.07;;;;;;;10.28;45.44;95752.97;4896375;29;20803;-69
2021/03/28 06:47:58;;;;;;;42.93;20.80;;;;;;;10.14;44.75;95761.13;4880905;29;20606;-69
2021/03/28 06:50:42;;;;;;;44.63;21.03;;;;;;;10.19;45.45;95763.63;4896533;29;20637;-69
2021/03/28 06:53:29;;;;;;;41.20;19.27;;;;;;;10.25;44.72;95765.03;4864873;29;20457;-69
2021/03/28 06:56:16;;;;;;;47.23;19.87;;;;;;;10.28;44.22;95764.41;4880865;29;20437;-71
2021/03/28 06:58:57;;;;;;;44.17;20.40;;;;;;;10.29;43.85;95765.19;4880528;29;20926;-68
2021/03/28 07:01:40;;;;;;;39.97;20.20;;;;;;;10.39;49.60;95766.72;4925710;29;20511;-71
2021/03/28 07:04:25;;;;;;;40.57;18.87;;;;;;;10.63;50.63;95766.91;4955462;29;20522;-70
2021/03/28 07:07:08;;;;;;;39.50;20.97;;;;;;;10.94;55.66;95771.09;4955379;29;20461;-74
2021/03/28 07:10:01;;;;;;;46.20;23.47;;;;;;;10.92;44.42;95778.66;4955468;29;20426;-69
2021/03/28 07:12:47;;;;;;;42.20;22.97;;;;;;;10.39;46.20;95775.53;4954622;28;20803;-71
2021/03/28 07:15:58;;;;;;;47.30;23.50;;;;;;;10.20;47.89;95770.53;4938067;29;20950;-70
2021/03/28 07:18:44;;;;;;;60.03;25.47;;;;;;;10.17;47.62;95775.75;4865942;29;20840;-74
2021/03/28 07:21:24;;;;;;;52.37;25.90;;;;;;;10.23;46.83;95788.63;4861799;29;20977;-70
2021/03/28 07:24:01;;;;;;;54.13;24.73;;;;;;;10.02;47.09;95790.38;4878484;29;20458;-72
2021/03/28 07:27:04;;;;;;;54.27;25.37;;;;;;;10.17;47.22;95786.41;4881573;29;20975;-69
2021/03/28 07:30:04;;;;;;;43.63;22.63;;;;;;;10.31;46.65;95789.66;4895635;29;20996;-72
2021/03/28 07:32:54;;;;;;;49.73;23.53;;;;;;;10.07;47.30;95795.53;4880124;29;20452;-72
2021/03/28 07:35:41;;;;;;;44.80;23.70;;;;;;;10.10;46.87;95797.59;4895529;29;20429;-72
2021/03/28 07:38:44;;;;;;;50.03;23.60;;;;;;;10.16;47.58;95798.97;4895950;29;20883;-70
2021/03/28 07:41:14;;;;;;;51.53;24.77;;;;;;;10.24;47.42;95803.53;4895350;29;20495;-73
2021/03/28 07:43:57;;;;;;;51.40;25.33;;;;;;;10.48;47.00;95804.84;4880359;29;20485;-70
2021/03/28 07:46:47;;;;;;;54.27;26.30;;;;;;;10.54;46.33;95809.66;4895505;29;21049;-69
2021/03/28 07:49:34;;;;;;;50.23;26.00;;;;;;;10.70;46.76;95809.91;4895743;29;20425;-69
2021/03/28 07:52:11;;;;;;;52.50;27.27;;;;;;;10.93;46.05;95809.63;4895475;29;20425;-69
2021/03/28 07:54:40;;;;;;;57.57;25.67;;;;;;;10.89;47.06;95808.69;4954096;28;21251;-70
2021/03/28 07:57:15;;;;;;;50.57;26.97;;;;;;;10.98;46.44;95809.44;4956479;28;20425;-70
2021/03/28 08:00:05;;;;;;;52.97;25.73;;;;;;;11.26;47.06;95793.66;4973774;28;20483;-70
2021/03/28 08:02:55;;;;;;;50.03;25.93;;;;;;;11.50;46.41;95812.47;4957375;28;20516;-70
2021/03/28 08:06:11;;;;;;;53.07;24.83;;;;;;;11.70;45.43;95816.25;4956203;28;20422;-71
2021/03/28 08:09:04;;;;;;;45.40;23.97;;;;;;;11.96;45.35;95807.22;4914029;29;20830;-69
2021/03/28 08:11:57;;;;;;;35.77;20.17;;;;;;;12.15;43.18;95815.53;4914239;29;20416;-68
2021/03/28 08:14:44;;;;;;;35.57;17.53;;;;;;;12.29;43.52;95818.69;4914129;29;20429;-71
2021/03/28 08:17:42;;;;;;;37.07;17.67;;;;;;;12.47;43.31;95813.91;4913774;29;20428;-70
2021/03/28 08:20:46;;;;;;;42.87;18.83;;;;;;;12.77;43.68;95813.66;4899904;29;20515;-71
2021/03/28 08:23:45;;;;;;;34.30;18.80;;;;;;;13.07;42.16;95823.00;4897149;29;20439;-70
2021/03/28 08:26:19;;;;;;;35.80;18.00;;;;;;;13.32;42.51;95815.75;4898103;29;20440;-69
2021/03/28 08:28:59;;;;;;;24.43;13.37;;;;;;;13.48;39.70;95816.59;4898438;29;20436;-71
2021/03/28 08:31:52;;;;;;;20.47;10.70;;;;;;;13.54;40.57;95813.66;4913839;29;20505;-71
2021/03/28 08:34:55;;;;;;;17.43;9.47;;;;;;;13.75;41.04;95811.56;4897763;29;20975;-68
2021/03/28 08:37:51;;;;;;;15.43;8.03;;;;;;;13.95;39.88;95824.00;4913324;29;20419;-71
2021/03/28 08:40:33;;;;;;;12.17;6.70;;;;;;;14.01;39.89;95811.09;4954902;28;20417;-71
2021/03/28 08:43:07;;;;;;;10.90;6.00;;;;;;;14.03;40.13;95817.69;4955759;28;20823;-69
2021/03/28 08:45:55;;;;;;;10.13;6.60;;;;;;;14.18;41.40;95810.78;4955309;28;20528;-69
2021/03/28 08:48:29;;;;;;;15.00;6.30;;;;;;;14.37;41.62;95809.34;4972951;28;20940;-69
2021/03/28 08:51:33;;;;;;;11.80;6.37;;;;;;;14.57;39.81;95815.59;4973004;28;20428;-69
2021/03/28 08:54:03;;;;;;;9.43;6.20;;;;;;;14.75;40.36;95814.88;4941813;28;20833;-69
2021/03/28 08:56:34;;;;;;;9.57;6.30;;;;;;;14.91;41.26;95806.78;4955783;28;20424;-68
2021/03/28 08:59:10;;;;;;;11.50;6.27;;;;;;;15.10;39.86;95805.28;4955798;28;20837;-69
2021/03/28 09:01:46;;;;;;;9.20;5.83;;;;;;;15.18;41.04;95807.00;4940252;28;20512;-68
2021/03/28 09:04:27;;;;;;;13.43;5.93;;;;;;;15.36;39.74;95802.75;4955478;28;20902;-69
2021/03/28 09:07:40;;;;;;;12.13;5.73;;;;;;;15.60;39.84;95804.41;4957372;28;20458;-70
2021/03/28 09:10:07;;;;;;;24.37;6.67;;;;;;;15.41;38.70;95807.88;4942922;28;20792;-68
2021/03/28 09:12:46;;;;;;;14.23;6.33;;;;;;;15.41;40.09;95810.56;4955345;28;20433;-71
2021/03/28 09:15:50;;;;;;;9.50;5.90;;;;;;;15.43;38.99;95819.06;4955703;28;20454;-68
2021/03/28 09:18:44;;;;;;;11.30;5.93;;;;;;;15.28;39.34;95809.13;4972535;28;20425;-69
2021/03/28 09:21:33;;;;;;;15.73;6.80;;;;;;;15.17;39.83;95808.91;4951037;28;21018;-69
2021/03/28 09:24:13;;;;;;;12.43;6.77;;;;;;;15.20;40.08;95818.16;4957414;28;20497;-68
2021/03/28 09:27:01;;;;;;;11.37;6.67;;;;;;;15.28;41.40;95811.84;4972403;28;20450;-69
2021/03/28 09:29:35;;;;;;;11.20;6.37;;;;;;;15.38;41.17;95805.13;4977295;28;20261;-70
2021/03/28 09:32:25;;;;;;;13.43;6.87;;;;;;;15.46;40.99;95801.44;4975354;28;20949;-70
2021/03/28 09:35:22;;;;;;;9.33;6.60;;;;;;;15.51;39.58;95799.25;4963755;28;20445;-68
2021/03/28 09:38:08;;;;;;;13.83;6.50;;;;;;;15.64;40.15;95801.81;4984222;28;20422;-67
2021/03/28 09:40:58;;;;;;;12.33;7.07;;;;;;;15.74;40.03;95803.94;4971279;28;20210;-71
2021/03/28 09:43:31;;;;;;;11.20;6.47;;;;;;;15.82;40.05;95802.94;4964534;28;20167;-72
2021/03/28 09:46:16;;;;;;;10.10;6.70;;;;;;;16.06;40.18;95796.47;4950634;28;20456;-69
2021/03/28 09:48:56;;;;;;;12.73;6.57;;;;;;;16.28;38.97;95809.19;4973273;28;20272;-68
2021/03/28 09:51:40;;;;;;;13.70;7.23;;;;;;;16.26;40.00;95816.81;4975694;28;20190;-69
2021/03/28 09:54:36;;;;;;;19.07;6.30;;;;;;;16.17;39.37;95821.69;4994758;28;20614;-72
2021/03/28 09:57:25;;;;;;;14.57;6.83;;;;;;;15.67;40.76;95817.28;4995695;28;20524;-68
2021/03/28 10:00:03;;;;;;;11.10;5.73;;;;;;;15.67;41.27;95823.44;4964940;28;20176;-69
2021/03/28 10:02:40;;;;;;;10.47;5.80;;;;;;;15.83;42.13;95823.34;4977577;28;20208;-67
2021/03/28 10:05:25;;;;;;;9.50;6.03;;;;;;;15.97;40.29;95823.63;4968046;28;20387;-68
2021/03/28 10:08:10;;;;;;;10.77;5.77;;;;;;;15.61;41.30;95828.28;4961248;28;20182;-68
2021/03/28 10:10:54;;;;;;;8.30;6.33;;;;;;;15.47;42.26;95822.59;4958306;28;20189;-68
2021/03/28 10:13:40;;;;;;;12.77;7.03;;;;;;;15.26;42.82;95811.38;4975737;28;20479;-68
2021/03/28 10:16:12;;;;;;;10.47;5.90;;;;;;;15.70;43.22;95817.31;4958310;28;20166;-69
2021/03/28 10:19:01;;;;;;;10.93;6.13;;;;;;;16.20;43.15;95812.09;4975612;28;20178;-69
2021/03/28 10:21:35;;;;;;;10.27;5.27;;;;;;;16.19;43.01;95811.31;4958919;28;20373;-69
2021/03/28 10:24:16;;;;;;;9.10;6.03;;;;;;;16.39;42.64;95799.34;4975294;28;20292;-68
2021/03/28 10:26:58;;;;;;;10.13;6.10;;;;;;;16.63;42.71;95808.97;4975659;28;20175;-67
2021/03/28 10:29:51;;;;;;;10.57;6.70;;;;;;;16.52;42.49;95812.66;4957925;28;20190;-70
2021/03/28 10:32:39;;;;;;;10.73;6.70;;;;;;;16.25;43.15;95817.97;4975106;28;20202;-70
2021/03/28 10:35:26;;;;;;;12.00;6.57;;;;;;;16.03;43.66;95824.09;4939054;29;20267;-68
2021/03/28 10:38:28;;;;;;;9.60;7.33;;;;;;;15.51;43.56;95815.38;4955835;29;20317;-68
2021/03/28 10:40:58;;;;;;;11.57;7.07;;;;;;;15.37;44.27;95803.53;4944423;29;20583;-68
2021/03/28 10:43:42;;;;;;;10.83;7.70;;;;;;;15.38;44.75;95811.28;4938945;29;20430;-72
2021/03/28 10:46:36;;;;;;;9.93;6.83;;;;;;;15.60;45.25;95823.25;4954617;28;20179;-71
2021/03/28 10:49:39;;;;;;;10.87;6.97;;;;;;;15.39;44.97;95823.59;4954501;29;20167;-72
2021/03/28 10:52:45;;;;;;;12.90;7.37;;;;;;;15.33;46.93;95828.47;4955910;29;20473;-69
2021/03/28 10:55:35;;;;;;;22.40;9.47;;;;;;;15.35;47.24;95823.50;4944732;29;20561;-72
2021/03/28 10:58:35;;;;;;;10.77;6.73;;;;;;;15.46;46.18;95836.41;4959779;28;20185;-71
2021/03/28 11:01:41;;;;;;;13.33;6.40;;;;;;;15.31;46.10;95835.31;4973990;28;20485;-71
2021/03/28 11:04:24;;;;;;;11.10;6.17;;;;;;;15.11;47.16;95837.22;4974605;28;20962;-72
2021/03/28 11:07:09;;;;;;;10.57;6.53;;;;;;;14.55;48.09;95843.59;4974937;28;20418;-69
2021/03/28 11:09:53;;;;;;;17.33;7.20;;;;;;;14.70;48.70;95838.56;4914980;29;20416;-71
2021/03/28 11:12:19;;;;;;;11.80;6.70;;;;;;;14.51;49.06;95837.34;4915205;29;20458;-71
2021/03/28 11:15:13;;;;;;;14.23;7.17;;;;;;;14.46;49.38;95844.84;4915098;29;20446;-69
2021/03/28 11:18:07;;;;;;;14.10;7.77;;;;;;;14.42;49.05;95836.72;4899202;29;20189;-69
2021/03/28 11:20:43;;;;;;;13.93;7.83;;;;;;;14.37;49.24;95838.88;4900995;29;20421;-68
2021/03/28 11:23:29;;;;;;;14.27;6.70;;;;;;;14.25;49.30;95845.91;4899063;29;20459;-69
2021/03/28 11:26:28;;;;;;;11.93;7.30;;;;;;;14.05;49.18;95846.88;4914801;29;21113;-70
2021/03/28 11:29:11;;;;;;;12.27;7.67;;;;;;;13.79;50.42;95855.38;4915013;29;20471;-69
2021/03/28 11:31:52;;;;;;;9.87;6.60;;;;;;;14.02;49.91;95848.34;4914922;29;20432;-71
2021/03/28 11:34:19;;;;;;;11.67;7.67;;;;;;;13.93;49.86;95850.41;4898913;29;20436;-69
2021/03/28 11:36:57;;;;;;;11.07;7.77;;;;;;;14.06;50.24;95853.03;4914756;29;20465;-68
2021/03/28 11:39:30;;;;;;;16.30;7.13;;;;;;;14.25;49.17;95858.53;4898880;29;20981;-71
2021/03/28 11:42:00;;;;;;;12.90;7.17;;;;;;;14.35;48.83;95841.91;4899034;29;20574;-69
2021/03/28 11:44:39;;;;;;;11.10;8.17;;;;;;;14.18;49.12;95848.38;4898769;29;20441;-69
2021/03/28 11:47:20;;;;;;;13.73;7.93;;;;;;;14.10;49.24;95845.88;4927535;28;20434;-69
2021/03/28 11:50:01;;;;;;;13.87;9.37;;;;;;;13.97;49.04;95845.13;4973751;28;20414;-71
2021/03/28 11:52:30;;;;;;;11.17;8.67;;;;;;;14.08;49.43;95856.16;4957730;28;20540;-71
2021/03/28 11:55:03;;;;;;;16.23;9.47;;;;;;;14.12;49.51;95849.75;4940921;28;20501;-71
2021/03/28 11:57:31;;;;;;;14.53;9.87;;;;;;;13.96;49.62;95857.78;4940866;28;20513;-69
2021/03/28 11:59:58;;;;;;;16.67;10.13;;;;;;;13.99;50.25;95853.63;4940595;28;20858;-71
2021/03/28 12:02:28;;;;;;;17.83;10.37;;;;;;;13.82;50.22;95851.25;4954313;28;20552;-70
2021/03/28 12:04:56;;;;;;;18.77;9.37;;;;;;;13.58;50.86;95844.84;4940241;28;20452;-71
2021/03/28 12:07:26;;;;;;;15.00;10.47;;;;;;;13.72;50.62;95847.13;4973225;28;20415;-68
2021/03/28 12:10:00;;;;;;;22.60;12.00;;;;;;;13.82;51.61;95852.03;4956373;28;20986;-68
2021/03/28 12:12:41;;;;;;;19.67;11.53;;;;;;;13.73;49.98;95843.34;4940731;28;20446;-68
2021/03/28 12:15:43;;;;;;;17.57;11.17;;;;;;;13.73;49.57;95851.38;4973568;28;20417;-68
2021/03/28 12:18:24;;;;;;;15.53;11.33;;;;;;;13.65;50.16;95842.34;4973195;28;20425;-72
2021/03/28 12:20:58;;;;;;;22.77;11.67;;;;;;;13.83;49.87;95839.38;4973047;28;20520;-72
2021/03/28 12:23:30;;;;;;;16.03;10.60;;;;;;;14.02;49.38;95834.91;4973000;28;20939;-72
2021/03/28 12:26:01;;;;;;;18.37;11.00;;;;;;;14.10;48.66;95833.22;4973253;28;20469;-69
2021/03/28 12:28:29;;;;;;;16.33;11.43;;;;;;;14.08;48.76;95831.97;4973442;28;20940;-68
2021/03/28 12:30:55;;;;;;;22.17;12.47;;;;;;;14.03;48.83;95825.75;4940349;28;20437;-73
2021/03/28 12:33:45;;;;;;;17.83;12.47;;;;;;;14.14;48.71;95831.41;4939269;28;20492;-73
2021/03/28 12:36:11;;;;;;;26.17;13.00;;;;;;;13.55;48.90;95817.91;4958481;28;20546;-73
2021/03/28 12:38:42;;;;;;;18.30;12.50;;;;;;;13.50;49.48;95819.69;4956037;28;20432;-69
2021/03/28 12:41:14;;;;;;;20.03;12.83;;;;;;;13.69;48.88;95815.59;4939852;28;20202;-72
2021/03/28 12:44:01;;;;;;;21.13;13.23;;;;;;;13.58;49.47;95815.34;4940208;28;20463;-70
2021/03/28 12:46:26;;;;;;;18.90;11.40;;;;;;;13.66;49.43;95811.72;4955796;28;20536;-72